sensor_id;sensor_type;location;lat;lon;timestamp;pressure;altitude;pressure_sealevel;temperature;humidity
38616;BME280;24370;51.986;4.666;2023-02-18T00:02:13;102303.81;;;16.15;64.96
38616;BME280;24370;51.986;4.666;2023-02-18T00:04:38;102294.88;;;16.28;65.14
38616;BME280;24370;51.986;4.666;2023-02-18T00:07:04;102283.31;;;16.40;66.60
38616;BME280;24370;51.986;4.666;2023-02-18T00:09:29;102283.84;;;16.68;65.51
38616;BME280;24370;51.986;4.666;2023-02-18T00:11:54;102290.59;;;16.18;66.71
38616;BME280;24370;51.986;4.666;2023-02-18T00:14:20;102286.91;;;16.33;67.22
38616;BME280;24370;51.986;4.666;2023-02-18T00:16:45;102278.66;;;15.73;70.89
38616;BME280;24370;51.986;4.666;2023-02-18T00:19:14;102274.75;;;16.18;66.70
38616;BME280;24370;51.986;4.666;2023-02-18T00:21:40;102282.13;;;15.77;68.07
38616;BME280;24370;51.986;4.666;2023-02-18T00:24:07;102276.91;;;15.72;71.81
38616;BME280;24370;51.986;4.666;2023-02-18T00:26:34;102268.88;;;15.91;71.17
38616;BME280;24370;51.986;4.666;2023-02-18T00:28:59;102272.47;;;15.81;69.43
38616;BME280;24370;51.986;4.666;2023-02-18T00:31:27;102276.34;;;15.33;70.71
38616;BME280;24370;51.986;4.666;2023-02-18T00:33:53;102266.47;;;16.52;67.00
38616;BME280;24370;51.986;4.666;2023-02-18T00:36:21;102257.72;;;16.47;65.82
38616;BME280;24370;51.986;4.666;2023-02-18T00:38:49;102255.19;;;15.46;72.36
38616;BME280;24370;51.986;4.666;2023-02-18T00:41:14;102249.81;;;15.58;72.27
38616;BME280;24370;51.986;4.666;2023-02-18T00:43:40;102241.69;;;15.86;70.60
38616;BME280;24370;51.986;4.666;2023-02-18T00:46:05;102244.84;;;16.19;68.51
38616;BME280;24370;51.986;4.666;2023-02-18T00:48:32;102247.16;;;15.59;68.67
38616;BME280;24370;51.986;4.666;2023-02-18T00:50:58;102247.78;;;15.88;70.55
38616;BME280;24370;51.986;4.666;2023-02-18T00:53:25;102245.34;;;15.68;71.30
38616;BME280;24370;51.986;4.666;2023-02-18T00:55:50;102246.03;;;15.90;70.45
38616;BME280;24370;51.986;4.666;2023-02-18T00:58:16;102237.59;;;16.38;66.70
38616;BME280;24370;51.986;4.666;2023-02-18T01:00:42;102231.94;;;15.94;69.79
38616;BME280;24370;51.986;4.666;2023-02-18T01:03:08;102230.56;;;15.47;73.14
38616;BME280;24370;51.986;4.666;2023-02-18T01:05:34;102242.41;;;16.00;69.53
38616;BME280;24370;51.986;4.666;2023-02-18T01:07:59;102230.84;;;16.12;70.58
38616;BME280;24370;51.986;4.666;2023-02-18T01:10:25;102230.38;;;15.68;70.92
38616;BME280;24370;51.986;4.666;2023-02-18T01:12:50;102221.03;;;16.25;69.20
38616;BME280;24370;51.986;4.666;2023-02-18T01:15:16;102228.13;;;16.18;71.64
38616;BME280;24370;51.986;4.666;2023-02-18T01:17:42;102231.56;;;16.25;70.52
38616;BME280;24370;51.986;4.666;2023-02-18T01:20:09;102227.28;;;16.16;70.67
38616;BME280;24370;51.986;4.666;2023-02-18T01:22:35;102223.97;;;16.73;67.83
38616;BME280;24370;51.986;4.666;2023-02-18T01:25:01;102220.09;;;16.29;69.25
38616;BME280;24370;51.986;4.666;2023-02-18T01:27:26;102209.53;;;17.54;63.27
38616;BME280;24370;51.986;4.666;2023-02-18T01:29:52;102208.25;;;17.25;63.24
38616;BME280;24370;51.986;4.666;2023-02-18T01:32:17;102206.00;;;17.00;66.93
38616;BME280;24370;51.986;4.666;2023-02-18T01:34:42;102204.97;;;16.43;67.15
38616;BME280;24370;51.986;4.666;2023-02-18T01:37:08;102204.09;;;16.43;69.49
38616;BME280;24370;51.986;4.666;2023-02-18T01:39:33;102201.13;;;16.69;66.88
38616;BME280;24370;51.986;4.666;2023-02-18T01:41:58;102211.72;;;16.66;66.68
38616;BME280;24370;51.986;4.666;2023-02-18T01:44:26;102209.66;;;15.26;74.89
38616;BME280;24370;51.986;4.666;2023-02-18T01:46:52;102206.22;;;16.13;73.71
38616;BME280;24370;51.986;4.666;2023-02-18T01:49:22;102195.91;;;16.63;69.57
38616;BME280;24370;51.986;4.666;2023-02-18T01:52:01;102200.38;;;16.61;69.29
38616;BME280;24370;51.986;4.666;2023-02-18T01:54:31;102188.25;;;16.46;71.84
38616;BME280;24370;51.986;4.666;2023-02-18T01:57:01;102190.97;;;16.38;69.71
38616;BME280;24370;51.986;4.666;2023-02-18T01:59:33;102186.53;;;15.59;74.40
38616;BME280;24370;51.986;4.666;2023-02-18T02:02:01;102184.50;;;16.62;68.43
38616;BME280;24370;51.986;4.666;2023-02-18T02:04:27;102188.25;;;16.43;71.52
38616;BME280;24370;51.986;4.666;2023-02-18T02:06:53;102182.38;;;16.21;73.68
38616;BME280;24370;51.986;4.666;2023-02-18T02:09:21;102170.75;;;15.58;81.37
38616;BME280;24370;51.986;4.666;2023-02-18T02:29:02;102131.88;;;15.82;74.40
38616;BME280;24370;51.986;4.666;2023-02-18T02:47:50;102079.22;;;17.00;68.73
38616;BME280;24370;51.986;4.666;2023-02-18T02:50:37;102077.16;;;15.98;71.25
38616;BME280;24370;51.986;4.666;2023-02-18T02:53:13;102067.06;;;16.32;71.97
38616;BME280;24370;51.986;4.666;2023-02-18T02:55:40;102068.44;;;15.96;70.46
38616;BME280;24370;51.986;4.666;2023-02-18T02:58:06;102063.34;;;15.75;72.66
38616;BME280;24370;51.986;4.666;2023-02-18T03:03:33;102061.34;;;15.99;73.05
38616;BME280;24370;51.986;4.666;2023-02-18T03:06:26;102051.03;;;16.44;70.87
38616;BME280;24370;51.986;4.666;2023-02-18T03:09:16;102057.81;;;16.00;71.59
38616;BME280;24370;51.986;4.666;2023-02-18T03:12:06;102054.34;;;15.98;74.78
38616;BME280;24370;51.986;4.666;2023-02-18T03:14:57;102058.44;;;16.19;72.58
38616;BME280;24370;51.986;4.666;2023-02-18T03:17:29;102041.06;;;16.62;72.45
38616;BME280;24370;51.986;4.666;2023-02-18T03:20:07;102043.31;;;16.32;73.25
38616;BME280;24370;51.986;4.666;2023-02-18T03:22:41;102042.34;;;16.38;75.86
38616;BME280;24370;51.986;4.666;2023-02-18T03:25:09;102050.53;;;16.18;74.25
38616;BME280;24370;51.986;4.666;2023-02-18T03:27:47;102032.00;;;16.78;71.59
38616;BME280;24370;51.986;4.666;2023-02-18T03:30:15;102035.63;;;15.43;79.71
38616;BME280;24370;51.986;4.666;2023-02-18T03:32:42;102011.59;;;16.35;74.17
38616;BME280;24370;51.986;4.666;2023-02-18T03:35:12;102010.50;;;15.91;75.90
38616;BME280;24370;51.986;4.666;2023-02-18T03:37:52;102001.50;;;16.04;79.86
38616;BME280;24370;51.986;4.666;2023-02-18T03:40:19;102006.41;;;14.83;84.54
38616;BME280;24370;51.986;4.666;2023-02-18T03:42:44;102000.78;;;15.20;86.60
38616;BME280;24370;51.986;4.666;2023-02-18T03:45:10;102007.38;;;15.55;78.42
38616;BME280;24370;51.986;4.666;2023-02-18T03:47:35;101998.84;;;15.34;83.91
38616;BME280;24370;51.986;4.666;2023-02-18T03:50:01;101986.44;;;15.46;80.58
38616;BME280;24370;51.986;4.666;2023-02-18T03:52:26;101983.50;;;15.67;81.28
38616;BME280;24370;51.986;4.666;2023-02-18T03:54:52;101988.63;;;15.06;82.64
38616;BME280;24370;51.986;4.666;2023-02-18T03:57:17;101987.75;;;15.81;79.08
38616;BME280;24370;51.986;4.666;2023-02-18T03:59:42;101986.28;;;15.55;79.67
38616;BME280;24370;51.986;4.666;2023-02-18T04:02:08;101973.38;;;15.36;83.54
38616;BME280;24370;51.986;4.666;2023-02-18T04:04:34;101991.19;;;15.14;83.26
38616;BME280;24370;51.986;4.666;2023-02-18T04:06:59;101974.63;;;15.76;79.78
38616;BME280;24370;51.986;4.666;2023-02-18T04:09:24;101978.91;;;15.85;80.34
38616;BME280;24370;51.986;4.666;2023-02-18T04:11:50;101980.59;;;15.19;84.57
38616;BME280;24370;51.986;4.666;2023-02-18T04:14:16;101975.81;;;14.68;89.09
38616;BME280;24370;51.986;4.666;2023-02-18T04:16:41;101967.28;;;15.30;84.18
38616;BME280;24370;51.986;4.666;2023-02-18T04:19:06;101980.53;;;15.25;89.61
38616;BME280;24370;51.986;4.666;2023-02-18T04:21:32;101970.03;;;15.19;86.53
38616;BME280;24370;51.986;4.666;2023-02-18T04:23:57;101964.41;;;15.48;82.76
38616;BME280;24370;51.986;4.666;2023-02-18T04:26:23;101964.56;;;15.39;84.31
38616;BME280;24370;51.986;4.666;2023-02-18T04:28:49;101967.22;;;14.41;94.18
38616;BME280;24370;51.986;4.666;2023-02-18T04:31:14;101978.22;;;14.92;92.96
38616;BME280;24370;51.986;4.666;2023-02-18T04:33:40;101969.63;;;14.73;91.94
38616;BME280;24370;51.986;4.666;2023-02-18T04:36:06;101967.50;;;15.13;89.89
38616;BME280;24370;51.986;4.666;2023-02-18T04:38:31;101961.03;;;15.41;90.15
38616;BME280;24370;51.986;4.666;2023-02-18T04:40:56;101946.50;;;15.76;83.77
38616;BME280;24370;51.986;4.666;2023-02-18T04:43:22;101955.59;;;15.54;86.18
38616;BME280;24370;51.986;4.666;2023-02-18T04:45:47;101949.88;;;15.88;84.20
38616;BME280;24370;51.986;4.666;2023-02-18T04:48:12;101939.59;;;14.93;87.81
38616;BME280;24370;51.986;4.666;2023-02-18T04:50:38;101931.41;;;15.88;82.49
38616;BME280;24370;51.986;4.666;2023-02-18T04:53:04;101936.00;;;15.03;93.55
38616;BME280;24370;51.986;4.666;2023-02-18T04:55:29;101918.41;;;15.05;90.85
38616;BME280;24370;51.986;4.666;2023-02-18T04:57:54;101925.84;;;14.66;100.00
38616;BME280;24370;51.986;4.666;2023-02-18T05:00:20;101918.97;;;15.32;89.45
38616;BME280;24370;51.986;4.666;2023-02-18T05:02:46;101923.69;;;15.74;90.06
38616;BME280;24370;51.986;4.666;2023-02-18T05:05:12;101911.47;;;15.68;84.19
38616;BME280;24370;51.986;4.666;2023-02-18T05:07:38;101929.69;;;15.15;87.54
38616;BME280;24370;51.986;4.666;2023-02-18T05:10:04;101925.56;;;15.66;86.57
38616;BME280;24370;51.986;4.666;2023-02-18T05:12:30;101931.09;;;16.09;79.36
38616;BME280;24370;51.986;4.666;2023-02-18T05:14:55;101931.22;;;15.36;85.43
38616;BME280;24370;51.986;4.666;2023-02-18T05:17:21;101919.16;;;15.87;83.04
38616;BME280;24370;51.986;4.666;2023-02-18T05:19:46;101916.97;;;15.51;85.27
38616;BME280;24370;51.986;4.666;2023-02-18T05:22:11;101909.84;;;16.19;82.49
38616;BME280;24370;51.986;4.666;2023-02-18T05:24:37;101929.69;;;15.87;81.31
38616;BME280;24370;51.986;4.666;2023-02-18T05:27:02;101920.59;;;15.41;84.59
38616;BME280;24370;51.986;4.666;2023-02-18T05:29:28;101911.03;;;15.35;82.24
38616;BME280;24370;51.986;4.666;2023-02-18T05:31:53;101910.38;;;15.85;84.33
38616;BME280;24370;51.986;4.666;2023-02-18T05:34:18;101891.03;;;15.86;80.79
38616;BME280;24370;51.986;4.666;2023-02-18T05:36:44;101895.47;;;15.82;84.73
38616;BME280;24370;51.986;4.666;2023-02-18T05:39:09;101883.31;;;15.72;83.03
38616;BME280;24370;51.986;4.666;2023-02-18T05:41:35;101893.34;;;15.43;83.64
38616;BME280;24370;51.986;4.666;2023-02-18T05:44:00;101891.25;;;15.67;84.91
38616;BME280;24370;51.986;4.666;2023-02-18T05:46:44;101889.88;;;15.40;86.52
38616;BME280;24370;51.986;4.666;2023-02-18T05:49:09;101895.38;;;15.23;89.07
38616;BME280;24370;51.986;4.666;2023-02-18T05:51:35;101897.69;;;16.11;80.59
38616;BME280;24370;51.986;4.666;2023-02-18T05:54:00;101887.34;;;15.96;78.17
38616;BME280;24370;51.986;4.666;2023-02-18T05:56:26;101889.03;;;16.03;81.25
38616;BME280;24370;51.986;4.666;2023-02-18T05:58:51;101887.91;;;15.56;83.23
38616;BME280;24370;51.986;4.666;2023-02-18T06:01:16;101878.00;;;16.31;81.96
38616;BME280;24370;51.986;4.666;2023-02-18T06:03:42;101892.19;;;15.65;81.90
38616;BME280;24370;51.986;4.666;2023-02-18T06:06:08;101905.25;;;16.32;78.37
38616;BME280;24370;51.986;4.666;2023-02-18T06:08:33;101889.56;;;14.95;86.63
38616;BME280;24370;51.986;4.666;2023-02-18T06:10:59;101879.31;;;15.44;82.45
38616;BME280;24370;51.986;4.666;2023-02-18T06:13:25;101888.78;;;15.58;84.35
38616;BME280;24370;51.986;4.666;2023-02-18T06:15:50;101883.69;;;15.42;82.99
38616;BME280;24370;51.986;4.666;2023-02-18T06:18:17;101886.03;;;16.23;79.15
38616;BME280;24370;51.986;4.666;2023-02-18T06:20:42;101887.91;;;15.56;82.44
38616;BME280;24370;51.986;4.666;2023-02-18T06:23:08;101876.66;;;15.44;83.75
38616;BME280;24370;51.986;4.666;2023-02-18T06:25:33;101868.53;;;15.60;83.52
38616;BME280;24370;51.986;4.666;2023-02-18T06:27:59;101874.53;;;15.03;82.82
38616;BME280;24370;51.986;4.666;2023-02-18T06:30:24;101872.59;;;15.19;83.92
38616;BME280;24370;51.986;4.666;2023-02-18T06:32:49;101873.63;;;15.05;86.83
38616;BME280;24370;51.986;4.666;2023-02-18T06:35:15;101873.34;;;15.29;84.06
38616;BME280;24370;51.986;4.666;2023-02-18T06:37:40;101872.97;;;15.56;80.43
38616;BME280;24370;51.986;4.666;2023-02-18T06:40:07;101881.88;;;14.78;89.08
38616;BME280;24370;51.986;4.666;2023-02-18T06:42:33;101870.59;;;15.39;85.31
38616;BME280;24370;51.986;4.666;2023-02-18T06:44:58;101874.16;;;15.35;83.68
38616;BME280;24370;51.986;4.666;2023-02-18T06:47:23;101865.31;;;15.39;83.58
38616;BME280;24370;51.986;4.666;2023-02-18T06:49:49;101867.44;;;15.09;83.04
38616;BME280;24370;51.986;4.666;2023-02-18T06:52:14;101868.78;;;14.70;85.38
38616;BME280;24370;51.986;4.666;2023-02-18T06:54:39;101870.41;;;15.52;77.01
38616;BME280;24370;51.986;4.666;2023-02-18T06:57:05;101865.13;;;14.83;84.36
38616;BME280;24370;51.986;4.666;2023-02-18T06:59:30;101888.44;;;15.16;80.01
38616;BME280;24370;51.986;4.666;2023-02-18T07:01:55;101877.78;;;15.26;78.62
38616;BME280;24370;51.986;4.666;2023-02-18T07:04:21;101876.75;;;14.62;84.79
38616;BME280;24370;51.986;4.666;2023-02-18T07:06:46;101871.19;;;14.91;81.14
38616;BME280;24370;51.986;4.666;2023-02-18T07:09:11;101873.63;;;15.08;80.17
38616;BME280;24370;51.986;4.666;2023-02-18T07:11:37;101887.59;;;15.14;79.49
38616;BME280;24370;51.986;4.666;2023-02-18T07:14:02;101878.06;;;15.03;76.04
38616;BME280;24370;51.986;4.666;2023-02-18T07:16:27;101880.13;;;14.76;78.61
38616;BME280;24370;51.986;4.666;2023-02-18T07:18:53;101875.63;;;14.88;75.16
38616;BME280;24370;51.986;4.666;2023-02-18T07:21:18;101865.75;;;15.05;76.03
38616;BME280;24370;51.986;4.666;2023-02-18T07:23:43;101860.94;;;15.37;72.77
38616;BME280;24370;51.986;4.666;2023-02-18T07:26:11;101862.78;;;15.94;71.99
38616;BME280;24370;51.986;4.666;2023-02-18T07:28:37;101856.84;;;15.16;72.92
38616;BME280;24370;51.986;4.666;2023-02-18T07:31:02;101875.31;;;15.14;70.79
38616;BME280;24370;51.986;4.666;2023-02-18T07:33:28;101868.03;;;15.33;70.67
38616;BME280;24370;51.986;4.666;2023-02-18T07:35:55;101863.53;;;15.40;70.46
38616;BME280;24370;51.986;4.666;2023-02-18T07:38:21;101876.47;;;14.90;71.89
38616;BME280;24370;51.986;4.666;2023-02-18T07:40:47;101860.75;;;14.84;71.17
38616;BME280;24370;51.986;4.666;2023-02-18T07:43:13;101847.69;;;15.44;69.85
38616;BME280;24370;51.986;4.666;2023-02-18T07:45:38;101862.31;;;15.00;70.27
38616;BME280;24370;51.986;4.666;2023-02-18T07:48:04;101858.44;;;15.29;69.26
38616;BME280;24370;51.986;4.666;2023-02-18T07:50:29;101883.22;;;15.14;68.79
38616;BME280;24370;51.986;4.666;2023-02-18T07:53:00;101865.47;;;15.27;69.89
38616;BME280;24370;51.986;4.666;2023-02-18T07:55:25;101890.44;;;14.95;69.37
38616;BME280;24370;51.986;4.666;2023-02-18T07:58:11;101872.84;;;15.00;70.08
38616;BME280;24370;51.986;4.666;2023-02-18T08:00:37;101868.94;;;15.32;66.15
38616;BME280;24370;51.986;4.666;2023-02-18T08:03:02;101875.97;;;15.30;65.01
38616;BME280;24370;51.986;4.666;2023-02-18T08:05:28;101886.84;;;15.02;67.95
38616;BME280;24370;51.986;4.666;2023-02-18T08:07:53;101876.44;;;14.91;68.49
38616;BME280;24370;51.986;4.666;2023-02-18T08:10:18;101892.66;;;14.50;69.09
38616;BME280;24370;51.986;4.666;2023-02-18T08:12:44;101876.25;;;15.07;68.69
38616;BME280;24370;51.986;4.666;2023-02-18T08:15:09;101880.09;;;15.51;66.17
38616;BME280;24370;51.986;4.666;2023-02-18T08:17:35;101878.63;;;14.48;70.14
38616;BME280;24370;51.986;4.666;2023-02-18T08:20:00;101892.06;;;15.05;67.32
38616;BME280;24370;51.986;4.666;2023-02-18T08:22:26;101896.47;;;15.06;67.59
38616;BME280;24370;51.986;4.666;2023-02-18T08:24:53;101886.28;;;14.75;69.96
38616;BME280;24370;51.986;4.666;2023-02-18T08:27:19;101887.25;;;14.62;72.56
38616;BME280;24370;51.986;4.666;2023-02-18T08:29:45;101893.16;;;14.87;74.00
38616;BME280;24370;51.986;4.666;2023-02-18T08:32:10;101884.06;;;15.15;71.58
38616;BME280;24370;51.986;4.666;2023-02-18T08:34:36;101885.19;;;15.60;70.20
38616;BME280;24370;51.986;4.666;2023-02-18T08:37:01;101877.31;;;15.59;68.29
38616;BME280;24370;51.986;4.666;2023-02-18T08:39:27;101892.78;;;14.34;74.77
38616;BME280;24370;51.986;4.666;2023-02-18T08:41:52;101879.31;;;15.44;69.81
38616;BME280;24370;51.986;4.666;2023-02-18T08:44:17;101868.41;;;15.02;69.12
38616;BME280;24370;51.986;4.666;2023-02-18T08:46:43;101880.59;;;15.11;68.86
38616;BME280;24370;51.986;4.666;2023-02-18T08:49:08;101877.97;;;15.09;69.50
38616;BME280;24370;51.986;4.666;2023-02-18T08:51:34;101887.34;;;14.53;71.17
38616;BME280;24370;51.986;4.666;2023-02-18T08:54:00;101887.50;;;15.21;67.61
38616;BME280;24370;51.986;4.666;2023-02-18T08:56:25;101889.63;;;15.60;66.78
38616;BME280;24370;51.986;4.666;2023-02-18T08:58:51;101910.63;;;14.93;65.76
38616;BME280;24370;51.986;4.666;2023-02-18T09:01:16;101899.66;;;15.33;66.99
38616;BME280;24370;51.986;4.666;2023-02-18T09:03:41;101898.34;;;15.65;63.00
38616;BME280;24370;51.986;4.666;2023-02-18T09:06:07;101907.28;;;15.53;64.95
38616;BME280;24370;51.986;4.666;2023-02-18T09:08:33;101918.84;;;14.62;68.54
38616;BME280;24370;51.986;4.666;2023-02-18T09:11:00;101919.31;;;15.04;66.98
38616;BME280;24370;51.986;4.666;2023-02-18T09:13:26;101902.41;;;15.24;66.79
38616;BME280;24370;51.986;4.666;2023-02-18T09:16:12;101922.22;;;14.76;67.74
38616;BME280;24370;51.986;4.666;2023-02-18T09:18:38;101906.03;;;15.82;62.64
38616;BME280;24370;51.986;4.666;2023-02-18T09:21:06;101907.81;;;15.77;64.46
38616;BME280;24370;51.986;4.666;2023-02-18T09:23:32;101916.25;;;15.38;64.52
38616;BME280;24370;51.986;4.666;2023-02-18T09:25:58;101920.22;;;15.72;64.97
38616;BME280;24370;51.986;4.666;2023-02-18T09:28:24;101926.00;;;15.97;63.79
38616;BME280;24370;51.986;4.666;2023-02-18T09:30:50;101930.50;;;15.22;64.06
38616;BME280;24370;51.986;4.666;2023-02-18T09:33:16;101937.59;;;15.17;65.48
38616;BME280;24370;51.986;4.666;2023-02-18T09:35:43;101938.38;;;15.95;64.02
38616;BME280;24370;51.986;4.666;2023-02-18T09:38:10;101942.88;;;15.85;64.87
38616;BME280;24370;51.986;4.666;2023-02-18T09:40:38;101940.63;;;14.78;68.87
38616;BME280;24370;51.986;4.666;2023-02-18T09:43:06;101942.78;;;15.23;66.71
38616;BME280;24370;51.986;4.666;2023-02-18T09:45:32;101939.00;;;15.44;66.76
38616;BME280;24370;51.986;4.666;2023-02-18T09:47:59;101933.06;;;15.30;66.91
38616;BME280;24370;51.986;4.666;2023-02-18T09:50:29;101935.00;;;15.84;63.29
38616;BME280;24370;51.986;4.666;2023-02-18T09:53:01;101922.00;;;15.68;64.97
38616;BME280;24370;51.986;4.666;2023-02-18T09:55:32;101941.94;;;15.91;65.21
38616;BME280;24370;51.986;4.666;2023-02-18T09:58:14;101949.75;;;15.27;67.97
38616;BME280;24370;51.986;4.666;2023-02-18T10:00:43;101974.72;;;15.68;66.72
38616;BME280;24370;51.986;4.666;2023-02-18T10:03:21;101950.22;;;15.60;64.13
38616;BME280;24370;51.986;4.666;2023-02-18T10:05:57;101955.72;;;16.08;61.87
38616;BME280;24370;51.986;4.666;2023-02-18T10:08:27;101974.97;;;14.64;68.32
38616;BME280;24370;51.986;4.666;2023-02-18T10:10:53;101953.13;;;14.51;70.91
38616;BME280;24370;51.986;4.666;2023-02-18T10:13:21;101947.84;;;15.38;66.82
38616;BME280;24370;51.986;4.666;2023-02-18T10:15:48;101969.38;;;15.73;63.95
38616;BME280;24370;51.986;4.666;2023-02-18T10:18:47;101965.53;;;15.30;67.76
38616;BME280;24370;51.986;4.666;2023-02-18T10:21:16;101960.28;;;15.97;65.75
38616;BME280;24370;51.986;4.666;2023-02-18T10:26:30;101968.81;;;16.15;65.47
38616;BME280;24370;51.986;4.666;2023-02-18T10:28:56;101965.81;;;16.39;62.59
38616;BME280;24370;51.986;4.666;2023-02-18T10:31:33;101983.44;;;15.00;70.61
38616;BME280;24370;51.986;4.666;2023-02-18T10:34:18;101976.59;;;16.24;65.81
38616;BME280;24370;51.986;4.666;2023-02-18T10:36:54;101991.09;;;15.20;69.81
38616;BME280;24370;51.986;4.666;2023-02-18T10:40:24;101991.38;;;14.94;70.58
38616;BME280;24370;51.986;4.666;2023-02-18T10:47:45;102012.50;;;15.67;67.91
38616;BME280;24370;51.986;4.666;2023-02-18T10:50:29;102007.56;;;15.39;67.85
38616;BME280;24370;51.986;4.666;2023-02-18T10:53:00;101993.41;;;15.50;68.24
38616;BME280;24370;51.986;4.666;2023-02-18T10:55:38;101991.25;;;16.43;67.02
38616;BME280;24370;51.986;4.666;2023-02-18T10:58:23;101995.66;;;15.82;66.54
38616;BME280;24370;51.986;4.666;2023-02-18T11:00:49;101988.47;;;16.51;63.66
38616;BME280;24370;51.986;4.666;2023-02-18T11:03:22;102000.97;;;15.76;66.82
38616;BME280;24370;51.986;4.666;2023-02-18T11:05:54;101983.03;;;15.34;69.82
38616;BME280;24370;51.986;4.666;2023-02-18T11:08:23;101978.31;;;16.25;63.38
38616;BME280;24370;51.986;4.666;2023-02-18T11:10:50;101983.63;;;15.59;69.39
38616;BME280;24370;51.986;4.666;2023-02-18T11:13:24;101978.19;;;15.72;67.88
38616;BME280;24370;51.986;4.666;2023-02-18T11:16:02;101983.84;;;16.09;65.15
38616;BME280;24370;51.986;4.666;2023-02-18T11:18:35;101974.50;;;15.88;66.91
38616;BME280;24370;51.986;4.666;2023-02-18T11:21:06;101974.75;;;16.29;67.08
38616;BME280;24370;51.986;4.666;2023-02-18T11:23:48;101986.28;;;16.22;64.66
38616;BME280;24370;51.986;4.666;2023-02-18T11:26:15;101980.31;;;16.10;66.45
38616;BME280;24370;51.986;4.666;2023-02-18T11:28:47;101992.16;;;15.78;66.87
38616;BME280;24370;51.986;4.666;2023-02-18T11:31:23;101977.88;;;15.98;67.06
38616;BME280;24370;51.986;4.666;2023-02-18T11:33:54;101996.22;;;16.04;65.95
38616;BME280;24370;51.986;4.666;2023-02-18T11:39:16;101977.41;;;16.27;63.82
38616;BME280;24370;51.986;4.666;2023-02-18T11:41:46;101993.13;;;15.71;67.56
38616;BME280;24370;51.986;4.666;2023-02-18T11:44:26;101985.22;;;16.35;66.94
38616;BME280;24370;51.986;4.666;2023-02-18T11:49:26;102000.69;;;15.29;68.56
38616;BME280;24370;51.986;4.666;2023-02-18T11:51:54;101969.63;;;16.18;65.91
38616;BME280;24370;51.986;4.666;2023-02-18T11:54:29;101967.88;;;16.19;65.38
38616;BME280;24370;51.986;4.666;2023-02-18T11:56:59;101989.41;;;15.88;66.31
38616;BME280;24370;51.986;4.666;2023-02-18T11:59:30;101979.09;;;16.32;64.17
38616;BME280;24370;51.986;4.666;2023-02-18T12:02:06;101957.97;;;16.33;64.97
38616;BME280;24370;51.986;4.666;2023-02-18T12:04:45;101969.25;;;15.84;67.99
38616;BME280;24370;51.986;4.666;2023-02-18T12:07:26;101969.06;;;16.54;63.47
38616;BME280;24370;51.986;4.666;2023-02-18T12:09:58;101974.19;;;16.63;62.60
38616;BME280;24370;51.986;4.666;2023-02-18T12:12:30;101964.22;;;17.71;59.20
38616;BME280;24370;51.986;4.666;2023-02-18T12:14:58;101968.59;;;17.71;58.47
38616;BME280;24370;51.986;4.666;2023-02-18T12:17:31;101951.94;;;17.69;57.83
38616;BME280;24370;51.986;4.666;2023-02-18T12:31:24;101963.59;;;17.60;56.91
38616;BME280;24370;51.986;4.666;2023-02-18T12:34:23;101963.63;;;18.35;56.47
38616;BME280;24370;51.986;4.666;2023-02-18T12:40:13;101976.63;;;17.24;59.93
38616;BME280;24370;51.986;4.666;2023-02-18T12:50:27;101968.66;;;17.69;57.94
38616;BME280;24370;51.986;4.666;2023-02-18T13:03:49;101969.59;;;18.07;57.11
38616;BME280;24370;51.986;4.666;2023-02-18T13:06:45;101966.84;;;17.71;58.63
38616;BME280;24370;51.986;4.666;2023-02-18T13:14:22;101976.41;;;16.89;60.99
38616;BME280;24370;51.986;4.666;2023-02-18T13:16:54;101976.44;;;17.33;59.02
38616;BME280;24370;51.986;4.666;2023-02-18T13:19:26;101968.75;;;16.72;61.91
38616;BME280;24370;51.986;4.666;2023-02-18T13:21:56;101964.41;;;17.18;60.66
38616;BME280;24370;51.986;4.666;2023-02-18T13:24:34;101968.84;;;16.66;59.68
38616;BME280;24370;51.986;4.666;2023-02-18T13:32:38;101982.63;;;16.84;61.45
38616;BME280;24370;51.986;4.666;2023-02-18T13:38:11;101951.94;;;18.09;58.66
38616;BME280;24370;51.986;4.666;2023-02-18T13:40:42;101976.19;;;18.27;57.13
38616;BME280;24370;51.986;4.666;2023-02-18T13:46:08;101972.66;;;17.03;60.66
38616;BME280;24370;51.986;4.666;2023-02-18T13:51:41;101968.97;;;17.54;60.23
38616;BME280;24370;51.986;4.666;2023-02-18T13:56:43;101974.41;;;17.48;59.99
38616;BME280;24370;51.986;4.666;2023-02-18T13:59:16;101962.50;;;18.09;56.29
38616;BME280;24370;51.986;4.666;2023-02-18T14:01:45;101970.06;;;18.25;57.00
38616;BME280;24370;51.986;4.666;2023-02-18T14:04:34;101979.69;;;17.88;57.99
38616;BME280;24370;51.986;4.666;2023-02-18T14:07:36;101980.78;;;17.79;58.52
38616;BME280;24370;51.986;4.666;2023-02-18T14:10:23;101995.69;;;16.94;61.00
38616;BME280;24370;51.986;4.666;2023-02-18T14:22:49;101980.00;;;17.74;58.13
38616;BME280;24370;51.986;4.666;2023-02-18T14:25:21;101983.97;;;17.09;59.25
38616;BME280;24370;51.986;4.666;2023-02-18T14:27:52;101980.19;;;17.23;60.26
38616;BME280;24370;51.986;4.666;2023-02-18T14:32:44;101999.88;;;17.06;61.02
38616;BME280;24370;51.986;4.666;2023-02-18T14:35:59;101993.09;;;16.88;62.33
38616;BME280;24370;51.986;4.666;2023-02-18T14:38:28;101993.00;;;16.43;62.89
38616;BME280;24370;51.986;4.666;2023-02-18T14:46:47;101996.06;;;17.65;59.96
38616;BME280;24370;51.986;4.666;2023-02-18T14:49:57;101985.09;;;17.41;60.10
38616;BME280;24370;51.986;4.666;2023-02-18T14:52:37;101987.06;;;16.83;61.02
38616;BME280;24370;51.986;4.666;2023-02-18T14:55:07;101988.75;;;16.87;61.58
38616;BME280;24370;51.986;4.666;2023-02-18T14:57:44;101983.66;;;16.76;63.08
38616;BME280;24370;51.986;4.666;2023-02-18T15:00:21;101993.56;;;18.00;58.72
38616;BME280;24370;51.986;4.666;2023-02-18T15:02:53;101995.22;;;17.63;59.68
38616;BME280;24370;51.986;4.666;2023-02-18T15:05:30;101988.13;;;16.71;60.27